Latest Weather Observations for Green Cape

IDN60801

Issued at 9:02 pm EST Tuesday 26 May 2015 (issued every 30 minutes, with the page automatically refreshed every 10 minutes)

About weather observations | Map of weather stations | Latest weather observations for NSW | Other Formats
Station Details ID: 069137 Name: GREEN CAPE AWS Lat: -37.26 Lon: 150.05 Height: 19.4 m
Data from the previous 72 hours. | See also: Recent months at Green Cape
Date/Time
EST
Temp
°C
App
Temp
°C
Dew
Point
Rel
Hum
%
Delta-T
°C
Wind Press
QNH
hPa
Press
MSL
hPa
Rain
since 9 am
mm
Dir
 
Spd
km/h
Gust
km/h
Spd
kts
Gust
kts
26/09:00pm 11.9 9.9 10.1 89 0.9 W 11 11 6 6 1026.4 1026.4 0.0
26/08:30pm 12.6 11.0 10.3 86 1.2 W 9 13 5 7 1026.6 1026.6 0.0
26/08:00pm 12.6 11.4 10.3 86 1.2 W 7 9 4 5 1026.6 1026.6 0.0
26/07:30pm 12.8 11.2 10.3 85 1.3 W 9 13 5 7 1026.9 1026.9 0.0
26/07:00pm 13.5 12.6 9.4 76 2.1 S 4 7 2 4 1026.8 1026.8 0.0
26/06:30pm 13.6 12.4 9.5 76 2.1 SSE 6 9 3 5 1026.6 1026.6 0.0
26/06:00pm 13.6 12.1 9.3 75 2.2 SSE 7 9 4 5 1026.6 1026.6 0.0
26/05:30pm 13.8 12.4 9.5 75 2.2 SSE 7 11 4 6 1026.6 1026.6 0.0
26/05:00pm 14.2 12.4 9.6 74 2.4 SSE 9 13 5 7 1026.5 1026.5 0.0
26/04:30pm 14.7 13.2 9.3 70 2.8 SSE 7 11 4 6 1026.3 1026.3 0.0
26/04:00pm 15.8 14.4 9.5 66 3.2 SSE 7 11 4 6 1026.4 1026.4 0.0
26/03:30pm 16.6 15.2 9.5 63 3.7 SE 7 9 4 5 1026.5 1026.5 0.0
26/03:00pm 17.2 15.9 9.9 62 3.8 SE 7 9 4 5 1026.7 1026.7 0.0
26/02:30pm 15.8 15.0 8.3 61 3.8 SSE 2 4 1 2 1026.7 1026.7 0.0
26/02:00pm 16.4 15.8 9.1 62 3.7 SSW 2 2 1 1 1026.8 1026.8 0.0
26/01:30pm 17.1 16.8 10.2 64 3.6 S 2 6 1 3 1026.9 1026.9 0.0
26/01:00pm 16.4 15.5 9.1 62 3.7 WSW 4 6 2 3 1027.4 1027.4 0.0
26/12:30pm 15.7 13.7 8.7 63 3.6 W 9 11 5 6 1027.9 1027.9 0.0
26/12:00pm 15.1 12.3 8.6 65 3.3 WNW 13 17 7 9 1028.4 1028.4 0.0
26/11:30am 14.4 10.7 7.9 65 3.2 W 17 19 9 10 1028.8 1028.8 0.0
26/11:00am 13.7 9.2 7.0 64 3.2 W 20 22 11 12 1029.3 1029.3 0.0
26/10:30am 13.2 8.6 6.5 64 3.2 W 20 22 11 12 1029.5 1029.5 0.0
26/10:00am 13.0 7.9 6.1 63 3.2 WNW 22 24 12 13 1029.7 1029.7 0.0
26/09:30am 12.1 6.9 5.5 64 3.1 W 22 26 12 14 1029.6 1029.6 0.0
26/09:00am 11.6 6.6 6.3 70 2.5 W 22 26 12 14 1029.6 1029.6 0.0
26/08:30am 10.8 6.2 6.4 74 2.1 W 20 26 11 14 1029.7 1029.7 0.0
26/08:00am 10.3 5.7 5.7 73 2.1 W 19 20 10 11 1029.5 1029.5 0.0
26/07:30am 9.9 4.7 5.3 73 2.1 W 22 24 12 13 1029.3 1029.3 0.0
26/07:00am 9.7 5.5 5.9 77 1.7 W 17 24 9 13 1029.1 1029.1 0.0
26/06:30am 9.6 5.0 6.3 80 1.5 W 20 24 11 13 1029.2 1029.2 0.0
26/06:00am 9.6 5.2 6.5 81 1.4 W 19 22 10 12 1029.1 1029.1 0.0
26/05:30am 9.5 5.0 6.0 79 1.6 W 19 20 10 11 1028.9 1028.9 0.0
26/05:00am 9.3 4.4 5.1 75 1.9 W 20 24 11 13 1028.8 1028.8 0.0
26/04:30am 9.4 4.6 5.6 77 1.7 WNW 20 22 11 12 1028.8 1028.8 0.0
26/04:00am 9.3 4.5 5.7 78 1.6 W 20 22 11 12 1028.8 1028.8 0.0
26/03:30am 9.6 5.0 6.5 81 1.4 W 20 22 11 12 1028.9 1028.9 0.0
26/03:00am 9.5 4.4 6.0 79 1.6 W 22 26 12 14 1029.1 1029.1 0.0
26/02:30am 9.8 5.2 6.7 81 1.5 W 20 24 11 13 1029.4 1029.4 0.0
26/02:00am 10.0 5.7 7.1 82 1.4 W 19 20 10 11 1029.5 1029.5 0.0
26/01:30am 10.3 5.9 7.2 81 1.5 W 20 22 11 12 1029.3 1029.3 0.0
26/01:00am 10.4 6.0 7.6 83 1.3 W 20 22 11 12 1029.3 1029.3 0.0
26/12:30am 10.3 6.0 7.9 85 1.2 W 20 22 11 12 1029.5 1029.5 0.0
26/12:00am 10.4 6.2 8.2 86 1.1 W 20 24 11 13 1029.6 1029.6 0.0
 
Date/Time
EST
Temp
°C
App
Temp
°C
Dew
Point
Rel
Hum
%
Delta-T
°C
Wind Press
QNH
hPa
Press
MSL
hPa
Rain
since 9 am
mm
Dir
 
Spd
km/h
Gust
km/h
Spd
kts
Gust
kts
25/11:30pm 10.6 6.5 8.7 88 0.9 W 20 24 11 13 1029.8 1029.8 0.0
25/11:00pm 10.7 6.8 8.6 87 1.0 W 19 20 10 11 1030.0 1030.0 0.0
25/10:30pm 11.3 7.8 8.7 84 1.3 W 17 19 9 10 1030.2 1030.2 0.0
25/10:00pm 11.9 8.2 8.0 77 1.9 WSW 17 19 9 10 1030.2 1030.2 0.0
25/09:30pm 11.9 9.0 8.2 78 1.8 W 13 17 7 9 1030.4 1030.4 0.0
25/09:00pm 12.3 8.3 8.2 76 2.0 W 19 24 10 13 1030.3 1030.3 0.0
25/08:30pm 12.7 8.6 7.8 72 2.4 W 19 24 10 13 1030.1 1030.1 0.0
25/08:00pm 12.9 9.9 7.6 70 2.6 W 13 17 7 9 1030.0 1030.0 0.0
25/07:30pm 13.2 10.3 8.1 71 2.5 WSW 13 20 7 11 1029.8 1029.8 0.0
25/07:00pm 13.3 10.4 8.0 70 2.6 WSW 13 17 7 9 1029.7 1029.7 0.0
25/06:30pm 13.3 9.7 8.4 72 2.4 WSW 17 20 9 11 1029.6 1029.6 0.0
25/06:00pm 13.4 10.3 8.9 74 2.3 SSW 15 19 8 10 1029.2 1029.2 0.0
25/05:30pm 13.5 9.6 8.6 72 2.5 SSW 19 22 10 12 1029.1 1029.1 0.0
25/05:00pm 13.5 9.9 9.9 79 1.8 SSW 19 24 10 13 1028.8 1028.8 0.0
25/04:30pm 13.6 9.1 10.2 80 1.8 SSW 24 28 13 15 1028.7 1028.7 0.0
25/04:00pm 14.1 10.7 10.7 80 1.8 SSW 19 20 10 11 1028.7 1028.7 0.0
25/03:30pm 14.3 10.7 10.7 79 1.9 SSW 20 22 11 12 1028.8 1028.8 0.0
25/03:00pm 14.2 10.2 10.6 79 1.9 SSW 22 28 12 15 1028.8 1028.8 0.0
25/02:30pm 14.8 10.5 10.8 77 2.1 SSW 24 28 13 15 1028.5 1028.5 0.0
25/02:00pm 15.0 11.4 10.0 72 2.6 S 19 22 10 12 1028.7 1028.7 0.0
25/01:30pm 14.9 11.3 9.7 71 2.7 SW 19 22 10 12 1029.1 1029.1 0.0
25/01:00pm 14.4 11.8 9.2 71 2.6 SW 13 22 7 12 1029.2 1029.2 0.0
25/12:30pm 14.1 11.4 8.9 71 2.6 W 13 17 7 9 1029.5 1029.5 0.0
25/12:00pm 13.4 10.3 8.7 73 2.3 WSW 15 17 8 9 1029.9 1029.9 0.0
25/11:30am 12.7 8.1 8.2 74 2.2 W 22 26 12 14 1030.4 1030.4 0.0
25/11:00am 12.4 9.0 7.5 72 2.4 W 15 19 8 10 1030.3 1030.3 0.0
25/10:30am 11.9 7.6 7.0 72 2.3 W 19 24 10 13 1030.9 1030.9 0.0
25/10:00am 10.9 6.2 5.9 71 2.3 W 20 24 11 13 1031.0 1031.0 0.0
25/09:30am 10.4 5.3 5.8 73 2.1 W 22 26 12 14 1031.2 1031.2 0.0
25/09:00am 9.9 4.4 5.9 76 1.8 W 24 28 13 15 1031.2 1031.2 0.2
25/08:30am 10.1 6.1 6.6 79 1.6 W 17 20 9 11 1031.1 1031.1 0.2
25/08:00am 10.0 6.5 7.1 82 1.4 W 15 19 8 10 1030.8 1030.8 0.2
25/07:30am 9.4 4.9 6.1 80 1.5 W 19 20 10 11 1030.8 1030.8 0.2
25/07:00am 9.1 5.0 6.2 82 1.3 W 17 20 9 11 1030.7 1030.7 0.2
25/06:30am 9.7 6.4 4.5 70 2.3 WNW 11 15 6 8 1030.4 1030.4 0.2
25/06:00am 9.1 5.1 5.1 76 1.8 W 15 17 8 9 1030.2 1030.2 0.2
25/05:30am 8.5 4.8 6.3 86 1.0 WNW 15 17 8 9 1030.1 1030.1 0.2
25/05:00am 8.3 5.1 6.8 90 0.7 WNW 13 15 7 8 1029.8 1029.8 0.2
25/04:30am 8.3 4.7 6.6 89 0.8 WNW 15 17 8 9 1029.7 1029.7 0.2
25/04:00am 9.0 6.2 7.1 88 0.9 WNW 11 13 6 7 1029.6 1029.6 0.2
25/03:30am 8.6 6.7 6.9 89 0.8 NW 6 9 3 5 1029.6 1029.6 0.2
25/03:00am 8.9 6.2 7.4 90 0.7 WNW 11 15 6 8 1030.0 1030.0 0.2
25/02:30am 9.0 7.1 7.5 90 0.7 WNW 7 11 4 6 1030.3 1030.3 0.2
25/02:00am 9.0 6.7 7.5 90 0.7 WNW 9 13 5 7 1030.5 1030.5 0.2
25/01:30am 9.1 6.8 7.5 90 0.8 WNW 9 11 5 6 1030.5 1030.5 0.2
25/01:00am 9.2 7.3 7.5 89 0.8 WNW 7 7 4 4 1030.3 1030.3 0.2
25/12:30am 10.0 7.9 8.1 88 0.9 WNW 9 11 5 6 1030.6 1030.6 0.2
25/12:00am 10.3 8.5 7.9 85 1.1 NW 7 9 4 5 1030.6 1030.6 0.2
 
Date/Time
EST
Temp
°C
App
Temp
°C
Dew
Point
Rel
Hum
%
Delta-T
°C
Wind Press
QNH
hPa
Press
MSL
hPa
Rain
since 9 am
mm
Dir
 
Spd
km/h
Gust
km/h
Spd
kts
Gust
kts
24/11:30pm 10.6 8.8 8.0 84 1.3 WNW 7 7 4 4 1030.9 1030.9 0.2
24/11:00pm 10.8 8.8 7.1 78 1.7 NW 7 9 4 5 1031.1 1031.1 0.2
24/10:30pm 11.7 8.3 6.0 68 2.7 NNW 13 15 7 8 1031.2 1031.2 0.2
24/10:00pm 11.9 10.0 7.4 74 2.2 NNW 7 11 4 6 1031.2 1031.2 0.2
24/09:30pm 11.3 9.9 8.7 84 1.3 NW 6 7 3 4 1031.3 1031.3 0.2
24/09:00pm 11.7 10.4 9.3 85 1.2 WNW 6 9 3 5 1031.3 1031.3 0.2
24/08:30pm 12.2 10.6 8.9 80 1.7 W 7 11 4 6 1031.5 1031.5 0.2
24/08:00pm 12.4 10.5 7.5 72 2.4 NNW 7 9 4 5 1031.3 1031.3 0.2
24/07:30pm 12.6 11.0 8.1 74 2.2 NW 6 7 3 4 1031.2 1031.2 0.2
24/07:00pm 13.2 11.4 8.1 71 2.5 N 7 9 4 5 1031.3 1031.3 0.2
24/06:30pm 12.7 10.9 8.0 73 2.3 N 7 9 4 5 1031.4 1031.4 0.2
24/06:00pm 13.1 11.3 8.0 71 2.5 N 7 9 4 5 1031.3 1031.3 0.2
24/05:30pm 13.4 11.7 8.3 71 2.5 NNE 7 13 4 7 1031.1 1031.1 0.2
24/05:00pm 13.9 12.4 8.3 69 2.8 NE 6 11 3 6 1030.9 1030.9 0.2
24/04:30pm 14.5 13.3 8.0 65 3.2 ENE 4 7 2 4 1030.7 1030.7 0.2
24/04:00pm 14.9 13.4 8.4 65 3.3 ESE 6 9 3 5 1030.7 1030.7 0.2
24/03:30pm 15.6 14.4 8.1 61 3.8 ESE 4 6 2 3 1030.6 1030.6 0.2
24/03:00pm 16.5 15.8 8.7 60 4.0 SE 2 6 1 3 1030.7 1030.7 0.2
24/02:30pm 16.4 15.5 9.1 62 3.8 SSE 4 7 2 4 1030.8 1030.8 0.2
24/02:00pm 17.0 16.6 9.7 62 3.8 SE 2 6 1 3 1030.5 1030.5 0.2
24/01:30pm 15.6 14.5 8.4 62 3.6 SSW 4 6 2 3 1030.7 1030.7 0.2
24/01:00pm 15.4 13.8 7.9 61 3.7 WSW 6 9 3 5 1030.8 1030.8 0.2
24/12:30pm 15.4 13.0 8.6 64 3.5 W 11 15 6 8 1031.1 1031.1 0.0
24/12:00pm 14.7 11.1 8.4 66 3.1 WNW 17 19 9 10 1031.2 1031.2 0.0
24/11:30am 14.0 9.7 8.0 67 3.0 WNW 20 24 11 13 1031.5 1031.5 0.0
24/11:00am 13.4 8.7 7.8 69 2.7 WNW 22 26 12 14 1031.7 1031.7 0.0
24/10:30am 12.6 7.5 7.5 71 2.5 WNW 24 30 13 16 1032.0 1032.0 0.0
24/10:00am 11.8 5.7 6.7 71 2.4 WNW 28 32 15 17 1032.1 1032.1 0.0
24/09:30am 11.4 5.3 6.7 73 2.2 WNW 28 33 15 18 1031.9 1031.9 0.0
24/09:00am 10.7 4.6 6.5 75 2.0 W 28 33 15 18 1031.9 1031.9 0.0
24/08:30am 10.7 5.0 6.5 75 2.0 WNW 26 32 14 17 1031.8 1031.8 0.0
24/08:00am 10.8 5.1 6.6 75 2.0 WNW 26 33 14 18 1031.5 1031.5 0.0
24/07:30am 10.8 5.5 6.7 76 1.9 WNW 24 33 13 18 1031.2 1031.2 0.0
24/07:00am 10.9 4.5 7.0 77 1.8 W 30 37 16 20 1031.0 1031.0 0.0
24/06:30am 11.2 4.9 7.3 77 1.9 WNW 30 37 16 20 1030.7 1030.7 0.0
24/06:00am 10.9 4.2 7.2 78 1.8 W 32 35 17 19 1030.4 1030.4 0.0
24/05:30am 11.3 5.0 7.4 77 1.9 W 30 37 16 20 1030.1 1030.1 0.0
24/05:00am 11.3 4.6 7.4 77 1.9 W 32 35 17 19 1030.0 1030.0 0.0
24/04:30am 11.5 4.7 7.8 78 1.8 W 33 39 18 21 1029.9 1029.9 0.0
24/04:00am 11.9 4.8 8.2 78 1.8 W 35 44 19 24 1029.7 1029.7 0.0
24/03:30am 12.1 5.0 8.2 77 1.9 W 35 46 19 25 1029.5 1029.5 0.0
24/03:00am 12.0 5.8 7.9 76 2.0 W 30 39 16 21 1029.5 1029.5 0.0
24/02:30am 11.9 5.1 7.8 76 2.0 W 33 39 18 21 1029.6 1029.6 0.0
24/02:00am 11.7 6.2 7.6 76 2.0 W 26 32 14 17 1029.7 1029.7 0.0
24/01:30am 11.8 6.3 7.7 76 2.0 W 26 32 14 17 1029.9 1029.9 0.0
24/01:00am 11.8 5.9 7.7 76 2.0 W 28 33 15 18 1029.9 1029.9 0.0
24/12:30am 11.6 5.7 7.7 77 1.9 W 28 32 15 17 1030.0 1030.0 0.0
24/12:00am 11.4 5.5 7.5 77 1.9 W 28 32 15 17 1030.0 1030.0 0.0
 
Date/Time
EST
Temp
°C
App
Temp
°C
Dew
Point
Rel
Hum
%
Delta-T
°C
Wind Press
QNH
hPa
Press
MSL
hPa
Rain
since 9 am
mm
Dir
 
Spd
km/h
Gust
km/h
Spd
kts
Gust
kts
23/11:30pm 11.2 4.9 7.3 77 1.9 W 30 35 16 19 1030.1 1030.1 0.0
23/11:00pm 11.4 5.1 7.3 76 2.0 W 30 35 16 19 1029.9 1029.9 0.0
23/10:30pm 11.3 4.6 7.2 76 2.0 W 32 37 17 20 1029.8 1029.8 0.0
23/10:00pm 11.4 5.0 7.1 75 2.0 W 30 37 16 20 1029.9 1029.9 0.0
23/09:30pm 11.3 4.0 7.0 75 2.1 W 35 56 19 30 1030.0 1030.0 0.0
23/09:23pm 11.5 4.6 7.2 75 2.1 W 33 56 18 30 1029.8 1029.8 0.0

Other Formats:

Comma delimited format used in spreadsheet applications
http://www.bom.gov.au/fwo/IDN60801/IDN60801.94934.axf

JavaScript Object Notation format (JSON) in row-major order
http://www.bom.gov.au/fwo/IDN60801/IDN60801.94934.json